PWSweather.com
Personal Weather Stations
Station Observations
COONRAPIDS
Minneapolis, MN 55433

Minneapolis, MN 55433

Lat: 45.187721, Lon: -93.36828

Elevation: 898

Station Type: Davis Vantage Pro 2

High Low Average
Temperature 20.9°F-6.2°C 10.7°F-11.8°C 16.9°F-8.4°C
Dew Point 9.6°F-12.4°C 3.4°F-15.9°C 8.1°F-13.3°C
Winds 3.5 mph 5.6 kmh Calm Calm Calm SCalm S
Wind Gusts 5.8 mph9.3 kmh -- 1.0 mph1.6 kmh
Humidity 74% 58% 68%
Pressure 30.66 in1038.3 mb 30.34 in1027.4 mb -
Precipitation 0.00 in0.0 mm - -
Hour Temp Dew Point Humidity Winds Wind Gusts Pressure Precip Precip Rate Daily Precip Total
12:00 AM 19.3°F-7.1°C 9.8°F-12.3°C 66% Calm Calm -- 30.31 in1026.4 mb - 0.00 in0.0 mm 0.00 in0.0 mm
12:10 AM 19.1°F-7.2°C 9.6°F-12.4°C 66% Calm Calm 3.5 mph5.6 kmh 30.31 in1026.4 mb - 0.00 in0.0 mm 0.00 in0.0 mm
12:20 AM 18.9°F-7.3°C 9.4°F-12.6°C 66% Calm Calm 2.3 mph3.7 kmh 30.32 in1026.8 mb - 0.00 in0.0 mm 0.00 in0.0 mm
12:30 AM 18.9°F-7.3°C 9.4°F-12.6°C 66% Calm Calm -- 30.33 in1027.1 mb - 0.00 in0.0 mm 0.00 in0.0 mm
12:40 AM 18.9°F-7.3°C 9.4°F-12.6°C 66% 2.3 mph NW3.7 kmh NW 3.5 mph5.6 kmh 30.33 in1027.1 mb - 0.00 in0.0 mm 0.00 in0.0 mm
12:50 AM 19.0°F-7.2°C 9.1°F-12.7°C 65% Calm Calm 3.5 mph5.6 kmh 30.34 in1027.4 mb - 0.00 in0.0 mm 0.00 in0.0 mm
01:00 AM 19.0°F-7.2°C 9.5°F-12.5°C 66% 2.3 mph NW3.7 kmh NW 3.5 mph5.6 kmh 30.34 in1027.4 mb - 0.00 in0.0 mm 0.00 in0.0 mm
01:10 AM 19.0°F-7.2°C 9.2°F-12.7°C 65% Calm Calm -- 30.34 in1027.4 mb - 0.00 in0.0 mm 0.00 in0.0 mm
01:20 AM 19.0°F-7.2°C 9.5°F-12.5°C 66% 1.2 mph WNW1.9 kmh WNW 3.5 mph5.6 kmh 30.34 in1027.4 mb - 0.00 in0.0 mm 0.00 in0.0 mm
01:30 AM 18.9°F-7.3°C 9.4°F-12.6°C 66% 1.2 mph N1.9 kmh N 1.2 mph1.9 kmh 30.34 in1027.4 mb - 0.00 in0.0 mm 0.00 in0.0 mm
01:40 AM 18.9°F-7.3°C 9.4°F-12.6°C 66% Calm Calm -- 30.34 in1027.4 mb - 0.00 in0.0 mm 0.00 in0.0 mm
01:50 AM 18.8°F-7.3°C 9.3°F-12.6°C 66% 1.2 mph NW1.9 kmh NW 2.3 mph3.7 kmh 30.36 in1028.1 mb - 0.00 in0.0 mm 0.00 in0.0 mm
02:00 AM 18.7°F-7.4°C 9.2°F-12.7°C 66% Calm Calm -- 30.36 in1028.1 mb - 0.00 in0.0 mm 0.00 in0.0 mm
02:10 AM 18.5°F-7.5°C 9.0°F-12.8°C 66% Calm Calm 2.3 mph3.7 kmh 30.35 in1027.8 mb - 0.00 in0.0 mm 0.00 in0.0 mm
02:20 AM 18.4°F-7.6°C 9.3°F-12.6°C 67% Calm Calm 1.2 mph1.9 kmh 30.36 in1028.1 mb - 0.00 in0.0 mm 0.00 in0.0 mm
02:30 AM 18.2°F-7.7°C 9.1°F-12.7°C 67% Calm Calm -- 30.36 in1028.1 mb - 0.00 in0.0 mm 0.00 in0.0 mm
02:40 AM 18.1°F-7.7°C 9.0°F-12.8°C 67% Calm Calm -- 30.36 in1028.1 mb - 0.00 in0.0 mm 0.00 in0.0 mm
02:50 AM 18.1°F-7.7°C 9.0°F-12.8°C 67% Calm Calm -- 30.36 in1028.1 mb - 0.00 in0.0 mm 0.00 in0.0 mm
03:00 AM 18.1°F-7.7°C 9.0°F-12.8°C 67% Calm Calm -- 30.37 in1028.4 mb - 0.00 in0.0 mm 0.00 in0.0 mm
03:10 AM 18.1°F-7.7°C 9.0°F-12.8°C 67% Calm Calm -- 30.37 in1028.4 mb - 0.00 in0.0 mm 0.00 in0.0 mm
03:20 AM 18.2°F-7.7°C 9.1°F-12.7°C 67% Calm Calm -- 30.38 in1028.8 mb - 0.00 in0.0 mm 0.00 in0.0 mm
03:30 AM 18.2°F-7.7°C 9.1°F-12.7°C 67% Calm Calm -- 30.38 in1028.8 mb - 0.00 in0.0 mm 0.00 in0.0 mm
03:40 AM 18.3°F-7.6°C 9.2°F-12.7°C 67% Calm Calm -- 30.38 in1028.8 mb - 0.00 in0.0 mm 0.00 in0.0 mm
03:50 AM 18.4°F-7.6°C 9.3°F-12.6°C 67% Calm Calm -- 30.38 in1028.8 mb - 0.00 in0.0 mm 0.00 in0.0 mm
04:00 AM 18.4°F-7.6°C 9.6°F-12.4°C 68% Calm Calm -- 30.38 in1028.8 mb - 0.00 in0.0 mm 0.00 in0.0 mm
04:10 AM 18.4°F-7.6°C 9.6°F-12.4°C 68% Calm Calm -- 30.38 in1028.8 mb - 0.00 in0.0 mm 0.00 in0.0 mm
04:20 AM 18.4°F-7.6°C 9.6°F-12.4°C 68% Calm Calm -- 30.39 in1029.1 mb - 0.00 in0.0 mm 0.00 in0.0 mm
04:30 AM 18.4°F-7.6°C 9.6°F-12.4°C 68% Calm Calm -- 30.39 in1029.1 mb - 0.00 in0.0 mm 0.00 in0.0 mm
04:40 AM 18.4°F-7.6°C 9.6°F-12.4°C 68% Calm Calm -- 30.39 in1029.1 mb - 0.00 in0.0 mm 0.00 in0.0 mm
04:50 AM 18.4°F-7.6°C 9.6°F-12.4°C 68% Calm Calm -- 30.40 in1029.5 mb - 0.00 in0.0 mm 0.00 in0.0 mm
05:00 AM 18.4°F-7.6°C 9.6°F-12.4°C 68% Calm Calm -- 30.40 in1029.5 mb - 0.00 in0.0 mm 0.00 in0.0 mm
05:10 AM 18.4°F-7.6°C 9.6°F-12.4°C 68% 1.2 mph NW1.9 kmh NW 3.5 mph5.6 kmh 30.41 in1029.8 mb - 0.00 in0.0 mm 0.00 in0.0 mm
05:20 AM 18.2°F-7.7°C 9.4°F-12.6°C 68% Calm Calm -- 30.41 in1029.8 mb - 0.00 in0.0 mm 0.00 in0.0 mm
05:30 AM 17.9°F-7.8°C 8.8°F-12.9°C 67% 1.2 mph N1.9 kmh N 2.3 mph3.7 kmh 30.41 in1029.8 mb - 0.00 in0.0 mm 0.00 in0.0 mm
05:40 AM 17.6°F-8.0°C 8.5°F-13.1°C 67% Calm Calm -- 30.42 in1030.1 mb - 0.00 in0.0 mm 0.00 in0.0 mm
05:50 AM 17.5°F-8.1°C 8.7°F-12.9°C 68% 1.2 mph NNE1.9 kmh NNE -- 30.42 in1030.1 mb - 0.00 in0.0 mm 0.00 in0.0 mm
06:00 AM 17.3°F-8.2°C 8.9°F-12.8°C 69% 1.2 mph NNE1.9 kmh NNE 2.3 mph3.7 kmh 30.42 in1030.1 mb - 0.00 in0.0 mm 0.00 in0.0 mm
06:10 AM 17.0°F-8.3°C 8.6°F-13.0°C 69% 1.2 mph N1.9 kmh N 2.3 mph3.7 kmh 30.43 in1030.5 mb - 0.00 in0.0 mm 0.00 in0.0 mm
06:20 AM 16.8°F-8.4°C 8.7°F-12.9°C 70% 1.2 mph N1.9 kmh N 2.3 mph3.7 kmh 30.43 in1030.5 mb - 0.00 in0.0 mm 0.00 in0.0 mm
06:30 AM 16.6°F-8.6°C 8.5°F-13.1°C 70% Calm Calm -- 30.43 in1030.5 mb - 0.00 in0.0 mm 0.00 in0.0 mm
06:40 AM 16.5°F-8.6°C 8.7°F-12.9°C 71% 1.2 mph NNE1.9 kmh NNE 2.3 mph3.7 kmh 30.44 in1030.8 mb - 0.00 in0.0 mm 0.00 in0.0 mm
06:50 AM 16.3°F-8.7°C 8.2°F-13.2°C 70% 1.2 mph N1.9 kmh N 1.2 mph1.9 kmh 30.44 in1030.8 mb - 0.00 in0.0 mm 0.00 in0.0 mm
07:00 AM 16.2°F-8.8°C 8.2°F-13.2°C 70% Calm Calm 2.3 mph3.7 kmh 30.45 in1031.2 mb - 0.00 in0.0 mm 0.00 in0.0 mm
07:10 AM 16.2°F-8.8°C 8.4°F-13.1°C 71% Calm Calm -- 30.45 in1031.2 mb - 0.00 in0.0 mm 0.00 in0.0 mm
07:20 AM 16.2°F-8.8°C 8.4°F-13.1°C 71% 1.2 mph N1.9 kmh N 3.5 mph5.6 kmh 30.46 in1031.5 mb - 0.00 in0.0 mm 0.00 in0.0 mm
07:30 AM 16.1°F-8.8°C 8.3°F-13.2°C 71% Calm Calm -- 30.46 in1031.5 mb - 0.00 in0.0 mm 0.00 in0.0 mm
07:40 AM 16.1°F-8.8°C 8.0°F-13.3°C 70% Calm Calm -- 30.46 in1031.5 mb - 0.00 in0.0 mm 0.00 in0.0 mm
07:50 AM 16.0°F-8.9°C 8.3°F-13.2°C 71% Calm Calm -- 30.47 in1031.8 mb - 0.00 in0.0 mm 0.00 in0.0 mm
08:00 AM 16.0°F-8.9°C 8.3°F-13.2°C 71% Calm Calm -- 30.47 in1031.8 mb - 0.00 in0.0 mm 0.00 in0.0 mm
08:10 AM 15.9°F-8.9°C 8.2°F-13.2°C 71% Calm Calm -- 30.48 in1032.2 mb - 0.00 in0.0 mm 0.00 in0.0 mm
08:20 AM 15.9°F-8.9°C 8.2°F-13.2°C 71% 1.2 mph NNE1.9 kmh NNE 3.5 mph5.6 kmh 30.48 in1032.2 mb - 0.00 in0.0 mm 0.00 in0.0 mm
08:30 AM 15.8°F-9.0°C 8.1°F-13.3°C 71% Calm Calm -- 30.48 in1032.2 mb - 0.00 in0.0 mm 0.00 in0.0 mm
08:40 AM 15.7°F-9.1°C 8.0°F-13.3°C 71% 1.2 mph NE1.9 kmh NE 2.3 mph3.7 kmh 30.49 in1032.5 mb - 0.00 in0.0 mm 0.00 in0.0 mm
08:50 AM 15.7°F-9.1°C 7.9°F-13.4°C 71% Calm Calm -- 30.49 in1032.5 mb - 0.00 in0.0 mm 0.00 in0.0 mm
09:00 AM 15.7°F-9.1°C 8.3°F-13.2°C 72% 1.2 mph NE1.9 kmh NE 3.5 mph5.6 kmh 30.50 in1032.8 mb - 0.00 in0.0 mm 0.00 in0.0 mm
09:10 AM 15.7°F-9.1°C 8.3°F-13.2°C 72% Calm Calm 2.3 mph3.7 kmh 30.50 in1032.8 mb - 0.00 in0.0 mm 0.00 in0.0 mm
09:20 AM 15.7°F-9.1°C 8.2°F-13.2°C 72% Calm Calm -- 30.50 in1032.8 mb - 0.00 in0.0 mm 0.00 in0.0 mm
09:30 AM 15.7°F-9.1°C 8.3°F-13.2°C 72% Calm Calm 1.2 mph1.9 kmh 30.51 in1033.2 mb - 0.00 in0.0 mm 0.00 in0.0 mm
09:40 AM 15.8°F-9.0°C 8.4°F-13.1°C 72% Calm Calm -- 30.51 in1033.2 mb - 0.00 in0.0 mm 0.00 in0.0 mm
09:50 AM 15.7°F-9.1°C 8.3°F-13.2°C 72% 1.2 mph NNE1.9 kmh NNE -- 30.52 in1033.5 mb - 0.00 in0.0 mm 0.00 in0.0 mm
10:00 AM 15.8°F-9.0°C 8.4°F-13.1°C 72% Calm Calm 1.2 mph1.9 kmh 30.52 in1033.5 mb - 0.00 in0.0 mm 0.00 in0.0 mm
10:10 AM 15.9°F-8.9°C 8.8°F-12.9°C 73% 1.2 mph NNE1.9 kmh NNE 4.6 mph7.4 kmh 30.52 in1033.5 mb - 0.00 in0.0 mm 0.00 in0.0 mm
10:20 AM 15.8°F-9.0°C 8.4°F-13.1°C 72% 1.2 mph NNE1.9 kmh NNE 3.5 mph5.6 kmh 30.53 in1033.9 mb - 0.00 in0.0 mm 0.00 in0.0 mm
10:30 AM 15.8°F-9.0°C 8.4°F-13.1°C 72% 1.2 mph ENE1.9 kmh ENE 3.5 mph5.6 kmh 30.53 in1033.9 mb - 0.00 in0.0 mm 0.00 in0.0 mm
10:40 AM 16.0°F-8.9°C 8.6°F-13.0°C 72% 1.2 mph NE1.9 kmh NE 3.5 mph5.6 kmh 30.53 in1033.9 mb - 0.00 in0.0 mm 0.00 in0.0 mm
10:50 AM 16.1°F-8.8°C 8.3°F-13.2°C 71% 1.2 mph NE1.9 kmh NE 4.6 mph7.4 kmh 30.53 in1033.9 mb - 0.00 in0.0 mm 0.00 in0.0 mm
11:00 AM 16.4°F-8.7°C 8.7°F-12.9°C 71% Calm Calm 3.5 mph5.6 kmh 30.54 in1034.2 mb - 0.00 in0.0 mm 0.00 in0.0 mm
11:10 AM 16.8°F-8.4°C 8.7°F-12.9°C 70% Calm Calm -- 30.55 in1034.5 mb - 0.00 in0.0 mm 0.00 in0.0 mm
11:20 AM 17.2°F-8.2°C 8.8°F-12.9°C 69% Calm Calm -- 30.55 in1034.5 mb - 0.00 in0.0 mm 0.00 in0.0 mm
11:30 AM 17.6°F-8.0°C 8.8°F-12.9°C 68% 3.5 mph NE5.6 kmh NE 4.6 mph7.4 kmh 30.56 in1034.9 mb - 0.00 in0.0 mm 0.00 in0.0 mm
11:40 AM 17.5°F-8.1°C 8.7°F-12.9°C 68% Calm Calm 3.5 mph5.6 kmh 30.56 in1034.9 mb - 0.00 in0.0 mm 0.00 in0.0 mm
11:50 AM 17.6°F-8.0°C 8.5°F-13.1°C 67% 1.2 mph N1.9 kmh N 5.8 mph9.3 kmh 30.56 in1034.9 mb - 0.00 in0.0 mm 0.00 in0.0 mm
12:00 PM 17.8°F-7.9°C 8.7°F-12.9°C 67% Calm Calm -- 30.56 in1034.9 mb - 0.00 in0.0 mm 0.00 in0.0 mm
12:10 PM 18.5°F-7.5°C 9.0°F-12.8°C 66% 1.2 mph NNE1.9 kmh NNE 3.5 mph5.6 kmh 30.57 in1035.2 mb - 0.00 in0.0 mm 0.00 in0.0 mm
12:20 PM 18.6°F-7.4°C 9.1°F-12.7°C 66% Calm Calm -- 30.56 in1034.9 mb - 0.00 in0.0 mm 0.00 in0.0 mm
12:30 PM 19.3°F-7.1°C 9.4°F-12.6°C 65% 1.2 mph NE1.9 kmh NE 3.5 mph5.6 kmh 30.56 in1034.9 mb - 0.00 in0.0 mm 0.00 in0.0 mm
12:40 PM 19.6°F-6.9°C 9.0°F-12.8°C 63% Calm Calm -- 30.56 in1034.9 mb - 0.00 in0.0 mm 0.00 in0.0 mm
12:50 PM 19.5°F-6.9°C 8.9°F-12.8°C 63% Calm Calm -- 30.55 in1034.5 mb - 0.00 in0.0 mm 0.00 in0.0 mm
01:00 PM 19.2°F-7.1°C 8.3°F-13.2°C 62% Calm Calm 3.5 mph5.6 kmh 30.55 in1034.5 mb - 0.00 in0.0 mm 0.00 in0.0 mm
01:10 PM 19.5°F-6.9°C 8.3°F-13.2°C 61% Calm Calm -- 30.55 in1034.5 mb - 0.00 in0.0 mm 0.00 in0.0 mm
01:20 PM 20.2°F-6.6°C 8.9°F-12.8°C 61% 3.5 mph NNE5.6 kmh NNE 3.5 mph5.6 kmh 30.55 in1034.5 mb - 0.00 in0.0 mm 0.00 in0.0 mm
01:30 PM 20.5°F-6.4°C 8.8°F-12.9°C 60% Calm Calm -- 30.55 in1034.5 mb - 0.00 in0.0 mm 0.00 in0.0 mm
01:40 PM 20.6°F-6.3°C 8.9°F-12.8°C 60% 1.2 mph N1.9 kmh N 3.5 mph5.6 kmh 30.55 in1034.5 mb - 0.00 in0.0 mm 0.00 in0.0 mm
01:50 PM 20.9°F-6.2°C 9.2°F-12.7°C 60% Calm Calm 3.5 mph5.6 kmh 30.55 in1034.5 mb - 0.00 in0.0 mm 0.00 in0.0 mm
02:00 PM 20.8°F-6.2°C 8.3°F-13.2°C 58% Calm Calm -- 30.55 in1034.5 mb - 0.00 in0.0 mm 0.00 in0.0 mm
02:10 PM 20.7°F-6.3°C 8.6°F-13.0°C 59% Calm Calm -- 30.55 in1034.5 mb - 0.00 in0.0 mm 0.00 in0.0 mm
02:20 PM 20.9°F-6.2°C 8.8°F-12.9°C 59% Calm Calm 1.2 mph1.9 kmh 30.55 in1034.5 mb - 0.00 in0.0 mm 0.00 in0.0 mm
02:30 PM 20.9°F-6.2°C 8.4°F-13.1°C 58% Calm Calm 1.2 mph1.9 kmh 30.55 in1034.5 mb - 0.00 in0.0 mm 0.00 in0.0 mm
02:40 PM 20.9°F-6.2°C 8.8°F-12.9°C 59% Calm Calm -- 30.55 in1034.5 mb - 0.00 in0.0 mm 0.00 in0.0 mm
02:50 PM 20.6°F-6.3°C 8.1°F-13.3°C 58% Calm Calm -- 30.56 in1034.9 mb - 0.00 in0.0 mm 0.00 in0.0 mm
03:00 PM 20.6°F-6.3°C 8.9°F-12.8°C 60% 1.2 mph WNW1.9 kmh WNW 5.8 mph9.3 kmh 30.55 in1034.5 mb - 0.00 in0.0 mm 0.00 in0.0 mm
03:10 PM 20.7°F-6.3°C 8.6°F-13.0°C 59% 2.3 mph NNW3.7 kmh NNW 3.5 mph5.6 kmh 30.55 in1034.5 mb - 0.00 in0.0 mm 0.00 in0.0 mm
03:20 PM 20.5°F-6.4°C 8.4°F-13.1°C 59% Calm Calm 1.2 mph1.9 kmh 30.56 in1034.9 mb - 0.00 in0.0 mm 0.00 in0.0 mm
03:30 PM 20.4°F-6.4°C 8.7°F-12.9°C 60% 1.2 mph NNW1.9 kmh NNW 3.5 mph5.6 kmh 30.56 in1034.9 mb - 0.00 in0.0 mm 0.00 in0.0 mm
03:40 PM 20.2°F-6.6°C 8.9°F-12.8°C 61% 1.2 mph N1.9 kmh N 4.6 mph7.4 kmh 30.56 in1034.9 mb - 0.00 in0.0 mm 0.00 in0.0 mm
03:50 PM 20.0°F-6.7°C 8.7°F-12.9°C 61% 3.5 mph NW5.6 kmh NW 4.6 mph7.4 kmh 30.57 in1035.2 mb - 0.00 in0.0 mm 0.00 in0.0 mm
04:00 PM 19.7°F-6.8°C 8.8°F-12.9°C 62% 1.2 mph NW1.9 kmh NW 3.5 mph5.6 kmh 30.57 in1035.2 mb - 0.00 in0.0 mm 0.00 in0.0 mm
04:10 PM 19.5°F-6.9°C 8.9°F-12.8°C 63% 1.2 mph NW1.9 kmh NW 3.5 mph5.6 kmh 30.57 in1035.2 mb - 0.00 in0.0 mm 0.00 in0.0 mm
04:20 PM 19.5°F-6.9°C 8.9°F-12.8°C 63% 1.2 mph N1.9 kmh N 3.5 mph5.6 kmh 30.58 in1035.6 mb - 0.00 in0.0 mm 0.00 in0.0 mm
04:30 PM 19.2°F-7.1°C 8.7°F-12.9°C 63% Calm Calm 3.5 mph5.6 kmh 30.58 in1035.6 mb - 0.00 in0.0 mm 0.00 in0.0 mm
04:40 PM 19.2°F-7.1°C 8.7°F-12.9°C 63% 1.2 mph N1.9 kmh N 2.3 mph3.7 kmh 30.58 in1035.6 mb - 0.00 in0.0 mm 0.00 in0.0 mm
04:50 PM 18.9°F-7.3°C 8.7°F-12.9°C 64% Calm Calm -- 30.58 in1035.6 mb - 0.00 in0.0 mm 0.00 in0.0 mm
05:00 PM 18.9°F-7.3°C 8.7°F-12.9°C 64% 1.2 mph NW1.9 kmh NW 4.6 mph7.4 kmh 30.59 in1035.9 mb - 0.00 in0.0 mm 0.00 in0.0 mm
05:10 PM 18.6°F-7.4°C 8.4°F-13.1°C 64% Calm Calm -- 30.59 in1035.9 mb - 0.00 in0.0 mm 0.00 in0.0 mm
05:20 PM 18.4°F-7.6°C 8.6°F-13.0°C 65% 1.2 mph N1.9 kmh N 3.5 mph5.6 kmh 30.59 in1035.9 mb - 0.00 in0.0 mm 0.00 in0.0 mm
06:30 PM 18.3°F-7.6°C 8.1°F-13.3°C 64% Calm Calm 2.3 mph3.7 kmh 30.59 in1035.9 mb - 0.00 in0.0 mm 0.00 in0.0 mm
06:40 PM 17.4°F-8.1°C 8.7°F-12.9°C 68% Calm Calm -- 30.62 in1036.9 mb - 0.00 in0.0 mm 0.00 in0.0 mm
06:50 PM 17.2°F-8.2°C 8.1°F-13.3°C 67% Calm Calm 3.5 mph5.6 kmh 30.62 in1036.9 mb - 0.00 in0.0 mm 0.00 in0.0 mm
07:00 PM 17.1°F-8.3°C 8.3°F-13.2°C 68% Calm Calm 1.2 mph1.9 kmh 30.62 in1036.9 mb - 0.00 in0.0 mm 0.00 in0.0 mm
07:10 PM 16.8°F-8.4°C 7.7°F-13.5°C 67% Calm Calm -- 30.62 in1036.9 mb - 0.00 in0.0 mm 0.00 in0.0 mm
07:20 PM 16.4°F-8.7°C 7.7°F-13.5°C 68% Calm Calm -- 30.63 in1037.3 mb - 0.00 in0.0 mm 0.00 in0.0 mm
07:30 PM 16.0°F-8.9°C 7.3°F-13.7°C 68% Calm Calm -- 30.63 in1037.3 mb - 0.00 in0.0 mm 0.00 in0.0 mm
07:40 PM 15.7°F-9.1°C 7.3°F-13.7°C 69% Calm Calm -- 30.63 in1037.3 mb - 0.00 in0.0 mm 0.00 in0.0 mm
07:50 PM 15.4°F-9.2°C 7.4°F-13.7°C 70% Calm Calm -- 30.63 in1037.3 mb - 0.00 in0.0 mm 0.00 in0.0 mm
08:00 PM 15.2°F-9.3°C 7.1°F-13.8°C 70% Calm Calm 3.5 mph5.6 kmh 30.63 in1037.3 mb - 0.00 in0.0 mm 0.00 in0.0 mm
08:10 PM 15.0°F-9.4°C 7.3°F-13.7°C 71% Calm Calm -- 30.63 in1037.3 mb - 0.00 in0.0 mm 0.00 in0.0 mm
08:20 PM 14.9°F-9.5°C 7.2°F-13.8°C 71% Calm Calm -- 30.64 in1037.6 mb - 0.00 in0.0 mm 0.00 in0.0 mm
08:30 PM 14.7°F-9.6°C 7.3°F-13.7°C 72% Calm Calm 3.5 mph5.6 kmh 30.64 in1037.6 mb - 0.00 in0.0 mm 0.00 in0.0 mm
08:40 PM 14.6°F-9.7°C 7.2°F-13.8°C 72% Calm Calm -- 30.65 in1037.9 mb - 0.00 in0.0 mm 0.00 in0.0 mm
08:50 PM 14.4°F-9.8°C 7.3°F-13.7°C 73% Calm Calm 3.5 mph5.6 kmh 30.65 in1037.9 mb - 0.00 in0.0 mm 0.00 in0.0 mm
09:00 PM 14.3°F-9.8°C 7.2°F-13.8°C 73% Calm Calm -- 30.64 in1037.6 mb - 0.00 in0.0 mm 0.00 in0.0 mm
09:10 PM 14.1°F-9.9°C 7.0°F-13.9°C 73% Calm Calm -- 30.64 in1037.6 mb - 0.00 in0.0 mm 0.00 in0.0 mm
09:20 PM 13.9°F-10.1°C 6.8°F-14.0°C 73% Calm Calm -- 30.65 in1037.9 mb - 0.00 in0.0 mm 0.00 in0.0 mm
09:30 PM 13.6°F-10.2°C 6.9°F-13.9°C 74% Calm Calm -- 30.65 in1037.9 mb - 0.00 in0.0 mm 0.00 in0.0 mm
09:40 PM 13.5°F-10.3°C 6.8°F-14.0°C 74% Calm Calm -- 30.65 in1037.9 mb - 0.00 in0.0 mm 0.00 in0.0 mm
09:50 PM 13.4°F-10.3°C 6.7°F-14.1°C 74% Calm Calm -- 30.64 in1037.6 mb - 0.00 in0.0 mm 0.00 in0.0 mm
10:00 PM 13.2°F-10.4°C 6.4°F-14.2°C 74% Calm Calm -- 30.65 in1037.9 mb - 0.00 in0.0 mm 0.00 in0.0 mm
10:10 PM 13.0°F-10.6°C 6.3°F-14.3°C 74% Calm Calm -- 30.65 in1037.9 mb - 0.00 in0.0 mm 0.00 in0.0 mm
10:20 PM 12.9°F-10.6°C 6.2°F-14.3°C 74% Calm Calm -- 30.65 in1037.9 mb - 0.00 in0.0 mm 0.00 in0.0 mm
10:30 PM 12.8°F-10.7°C 6.1°F-14.4°C 74% Calm Calm -- 30.64 in1037.6 mb - 0.00 in0.0 mm 0.00 in0.0 mm
10:40 PM 12.9°F-10.6°C 6.2°F-14.3°C 74% Calm Calm -- 30.64 in1037.6 mb - 0.00 in0.0 mm 0.00 in0.0 mm
10:50 PM 12.9°F-10.6°C 5.9°F-14.5°C 73% Calm Calm -- 30.64 in1037.6 mb - 0.00 in0.0 mm 0.00 in0.0 mm
11:00 PM 12.8°F-10.7°C 5.8°F-14.6°C 73% Calm Calm -- 30.64 in1037.6 mb - 0.00 in0.0 mm 0.00 in0.0 mm
11:10 PM 12.7°F-10.7°C 5.7°F-14.6°C 73% Calm Calm -- 30.64 in1037.6 mb - 0.00 in0.0 mm 0.00 in0.0 mm
11:20 PM 12.5°F-10.8°C 5.2°F-14.9°C 72% Calm Calm -- 30.64 in1037.6 mb - 0.00 in0.0 mm 0.00 in0.0 mm
11:30 PM 12.3°F-10.9°C 5.0°F-15.0°C 72% Calm Calm -- 30.64 in1037.6 mb - 0.00 in0.0 mm 0.00 in0.0 mm
11:40 PM 12.0°F-11.1°C 4.4°F-15.3°C 71% Calm Calm 3.5 mph5.6 kmh 30.64 in1037.6 mb - 0.00 in0.0 mm 0.00 in0.0 mm
11:50 PM 11.8°F-11.2°C 4.2°F-15.4°C 71% Calm Calm -- 30.64 in1037.6 mb - 0.00 in0.0 mm 0.00 in0.0 mm